createdAt,value
2022-12-09T00:00:53.012Z,3.55
2022-12-09T00:04:17.531Z,4.80
2022-12-09T00:07:31.044Z,3.80
2022-12-09T00:10:46.049Z,4.30
2022-12-09T00:13:47.047Z,4.10
2022-12-09T00:17:04.155Z,3.73
2022-12-09T00:20:08.634Z,4.60
2022-12-09T00:23:38.212Z,3.73
2022-12-09T00:26:54.120Z,4.03
2022-12-09T00:32:54.340Z,3.97
2022-12-09T00:36:11.152Z,4.97
2022-12-09T00:39:25.127Z,4.07
2022-12-09T00:42:38.231Z,4.73
2022-12-09T00:45:38.161Z,4.55
2022-12-09T00:49:02.309Z,5.60
2022-12-09T00:52:02.257Z,5.43
2022-12-09T00:55:28.317Z,4.10
2022-12-09T00:58:28.144Z,4.20
2022-12-09T01:01:53.268Z,4.70
2022-12-09T01:04:53.334Z,5.20
2022-12-09T01:08:05.542Z,4.03
2022-12-09T01:11:19.277Z,4.37
2022-12-09T01:14:32.482Z,4.60
2022-12-09T01:17:32.569Z,5.53
2022-12-09T01:20:57.294Z,5.05
2022-12-09T01:24:09.283Z,5.40
2022-12-09T01:27:36.344Z,4.60
2022-12-09T01:30:36.542Z,4.77
2022-12-09T01:34:00.505Z,5.10
2022-12-09T01:37:00.328Z,5.33
2022-12-09T01:40:12.516Z,5.10
2022-12-09T01:43:26.270Z,5.40
2022-12-09T01:46:38.385Z,5.80
2022-12-09T01:49:50.488Z,4.73
2022-12-09T01:53:18.414Z,6.70
2022-12-09T01:56:46.411Z,5.20
2022-12-09T02:00:11.661Z,6.20
2022-12-09T02:03:36.547Z,5.20
2022-12-09T02:07:01.584Z,8.80
2022-12-09T02:10:25.393Z,6.37
2022-12-09T02:13:50.442Z,5.17
2022-12-09T02:17:17.520Z,5.90
2022-12-09T02:20:41.684Z,5.17
2022-12-09T02:24:06.406Z,5.75
2022-12-09T02:27:32.506Z,6.05
2022-12-09T02:30:56.571Z,5.10
2022-12-09T02:34:30.670Z,5.90
2022-12-09T02:37:55.506Z,5.63
2022-12-09T02:41:19.605Z,5.10
2022-12-09T02:44:44.553Z,5.50
2022-12-09T02:48:09.550Z,6.17
2022-12-09T02:51:36.029Z,6.50
2022-12-09T02:54:59.566Z,6.17
2022-12-09T02:58:27.846Z,5.40
2022-12-09T03:01:56.101Z,6.05
2022-12-09T03:05:07.555Z,5.83
2022-12-09T03:08:38.918Z,5.57
2022-12-09T03:11:50.738Z,6.17
2022-12-09T03:15:14.865Z,7.47
2022-12-09T03:18:26.746Z,6.30
2022-12-09T03:21:50.747Z,7.00
2022-12-09T03:25:04.886Z,5.45
2022-12-09T03:28:29.778Z,7.23
2022-12-09T03:31:45.822Z,6.37
2022-12-09T03:35:09.981Z,6.70
2022-12-09T03:38:24.812Z,5.97
2022-12-09T03:41:51.702Z,7.60
2022-12-09T03:45:08.857Z,5.87
2022-12-09T03:48:33.032Z,6.93
2022-12-09T03:51:51.019Z,5.60
2022-12-09T03:55:15.174Z,7.97
2022-12-09T03:58:29.008Z,7.47
2022-12-09T04:01:52.925Z,6.80
2022-12-09T04:05:08.000Z,6.50
2022-12-09T04:08:10.101Z,7.07
2022-12-09T04:11:36.781Z,6.30
2022-12-09T04:14:49.825Z,6.20
2022-12-09T04:18:05.935Z,5.70
2022-12-09T04:21:17.816Z,6.47
2022-12-09T04:24:42.189Z,7.70
2022-12-09T04:30:56.910Z,6.37
2022-12-09T04:34:09.732Z,7.10
2022-12-09T04:37:13.027Z,9.10
2022-12-09T04:40:25.972Z,6.20
2022-12-09T04:43:25.896Z,7.70
2022-12-09T04:47:01.265Z,7.20
2022-12-09T04:50:00.947Z,7.30
2022-12-09T04:53:13.295Z,7.40
2022-12-09T04:56:24.983Z,9.43
2022-12-09T04:59:37.994Z,6.40
2022-12-09T05:02:52.168Z,6.93
2022-12-09T05:06:17.033Z,8.00
2022-12-09T05:09:23.060Z,7.17
2022-12-09T05:12:34.978Z,8.00
2022-12-09T05:15:35.547Z,7.67
2022-12-09T05:19:00.486Z,7.00
2022-12-09T05:22:12.316Z,7.20
2022-12-09T05:25:24.106Z,8.30
2022-12-09T05:28:24.226Z,7.80
2022-12-09T05:31:48.048Z,7.40
2022-12-09T05:35:02.145Z,8.53
2022-12-09T05:38:15.175Z,7.27
2022-12-09T05:41:27.328Z,9.05
2022-12-09T05:44:40.091Z,7.80
2022-12-09T05:47:41.143Z,7.70
2022-12-09T05:51:06.400Z,7.63
2022-12-09T05:54:18.171Z,8.60
2022-12-09T05:57:31.237Z,7.47
2022-12-09T06:00:32.464Z,9.85
2022-12-09T06:03:44.205Z,7.20
2022-12-09T06:06:58.349Z,9.30
2022-12-09T06:10:11.820Z,7.63
2022-12-09T06:13:11.286Z,9.87
2022-12-09T06:16:38.345Z,6.93
2022-12-09T06:19:38.502Z,8.75
2022-12-09T06:23:03.224Z,8.55
2022-12-09T06:26:03.554Z,7.67
2022-12-09T06:29:15.290Z,8.50
2022-12-09T06:32:27.305Z,8.87
2022-12-09T06:35:39.462Z,6.90
2022-12-09T06:38:53.378Z,7.93
2022-12-09T06:42:06.367Z,9.20
2022-12-09T06:45:06.934Z,8.57
2022-12-09T06:48:18.766Z,8.30
2022-12-09T06:51:18.525Z,8.50
2022-12-09T06:54:44.395Z,8.80
2022-12-09T06:57:44.557Z,9.63
2022-12-09T07:00:56.557Z,9.80
2022-12-09T07:04:09.418Z,7.13
2022-12-09T07:07:33.826Z,7.37
2022-12-09T07:10:56.106Z,9.83
2022-12-09T07:14:14.742Z,9.60
2022-12-09T07:17:14.442Z,9.23
2022-12-09T07:20:26.704Z,10.45
2022-12-09T07:23:26.535Z,9.20
2022-12-09T07:26:51.453Z,9.87
2022-12-09T07:29:51.732Z,10.47
2022-12-09T07:33:03.948Z,8.97
2022-12-09T07:36:03.793Z,12.07
2022-12-09T07:39:28.700Z,9.67
2022-12-09T07:42:42.953Z,10.97
2022-12-09T07:45:54.513Z,8.95
2022-12-09T07:49:10.030Z,9.40
2022-12-09T07:52:21.687Z,11.97
2022-12-09T07:55:22.846Z,11.10
2022-12-09T07:58:51.969Z,11.53
2022-12-09T08:02:06.623Z,11.73
2022-12-09T08:05:19.904Z,11.40
2022-12-09T08:08:20.019Z,12.77
2022-12-09T08:11:43.750Z,10.83
2022-12-09T08:14:57.850Z,12.40
2022-12-09T08:18:16.740Z,12.73
2022-12-09T08:21:29.946Z,18.05
2022-12-09T08:24:41.786Z,14.25
2022-12-09T08:27:41.824Z,11.27
2022-12-09T08:31:08.270Z,14.33
2022-12-09T08:34:19.879Z,13.80
2022-12-09T08:37:32.758Z,17.90
2022-12-09T08:40:33.026Z,17.30
2022-12-09T08:43:45.061Z,16.10
2022-12-09T08:46:58.778Z,14.40
2022-12-09T08:50:11.874Z,20.43
2022-12-09T08:53:16.738Z,16.90
2022-12-09T08:56:44.123Z,18.20
2022-12-09T08:59:45.513Z,16.73
2022-12-09T09:03:11.358Z,18.03
2022-12-09T09:06:26.035Z,20.50
2022-12-09T09:09:37.991Z,19.40
2022-12-09T09:12:43.199Z,21.05
2022-12-09T09:16:07.114Z,17.57
2022-12-09T09:19:19.826Z,20.53
2022-12-09T09:22:31.975Z,20.45
2022-12-09T09:25:31.848Z,16.87
2022-12-09T09:28:51.007Z,20.77
2022-12-09T09:32:03.996Z,19.87
2022-12-09T09:38:27.744Z,22.03
2022-12-09T09:42:06.186Z,20.67
2022-12-09T09:45:11.928Z,20.30
2022-12-09T09:48:36.003Z,19.17
2022-12-09T09:51:35.881Z,24.57
2022-12-09T09:55:02.902Z,26.70
2022-12-09T09:58:15.103Z,20.10
2022-12-09T10:01:39.436Z,21.60
2022-12-09T10:05:04.570Z,22.23
2022-12-09T10:08:17.476Z,22.80
2022-12-09T10:11:43.057Z,23.50
2022-12-09T10:14:58.091Z,22.23
2022-12-09T10:18:25.251Z,22.60
2022-12-09T10:21:39.443Z,21.60
2022-12-09T10:25:06.380Z,22.83
2022-12-09T10:28:20.144Z,25.00
2022-12-09T10:31:32.168Z,24.10
2022-12-09T10:34:44.300Z,25.27
2022-12-09T10:38:08.270Z,25.17
2022-12-09T10:41:32.995Z,20.20
2022-12-09T10:44:59.357Z,26.73
2022-12-09T10:48:14.552Z,23.87
2022-12-09T10:51:39.685Z,22.40
2022-12-09T10:54:52.322Z,24.43
2022-12-09T10:58:16.374Z,26.37
2022-12-09T11:01:42.362Z,24.50
2022-12-09T11:05:06.213Z,20.50
2022-12-09T11:08:18.401Z,27.07
2022-12-09T11:11:43.153Z,24.67
2022-12-09T11:14:55.518Z,24.87
2022-12-09T11:18:22.223Z,25.93
2022-12-09T11:21:37.355Z,22.47
2022-12-09T11:24:53.589Z,24.30
2022-12-09T11:28:05.389Z,19.05
2022-12-09T11:31:33.032Z,26.65
2022-12-09T11:34:44.641Z,21.67
2022-12-09T11:37:56.143Z,22.57
2022-12-09T11:41:08.169Z,23.77
2022-12-09T11:44:40.179Z,22.70
2022-12-09T11:49:50.191Z,23.93
2022-12-09T11:53:15.137Z,21.37
2022-12-09T11:56:28.071Z,21.37
2022-12-09T11:59:54.133Z,21.40
2022-12-09T12:03:20.203Z,24.50
2022-12-09T12:06:34.217Z,22.77
2022-12-09T12:09:59.169Z,22.90
2022-12-09T12:13:12.301Z,20.93
2022-12-09T12:16:39.467Z,22.03
2022-12-09T12:19:49.202Z,19.00
2022-12-09T12:23:30.680Z,20.65
2022-12-09T12:26:45.261Z,19.80
2022-12-09T12:30:10.339Z,19.17
2022-12-09T12:36:50.285Z,19.90
2022-12-09T12:40:04.313Z,20.00
2022-12-09T12:43:38.048Z,17.45
2022-12-09T12:46:55.233Z,22.03
2022-12-09T12:50:26.333Z,19.27
2022-12-09T12:53:40.250Z,20.80
2022-12-09T12:57:09.509Z,17.10
2022-12-09T13:00:20.267Z,16.47
2022-12-09T13:03:46.324Z,21.00
2022-12-09T13:07:03.286Z,15.20
2022-12-09T13:10:27.352Z,16.07
2022-12-09T13:13:39.323Z,17.43
2022-12-09T13:17:05.395Z,17.63
2022-12-09T13:20:17.337Z,17.87
2022-12-09T13:23:48.375Z,18.10
2022-12-09T13:27:04.339Z,16.05
2022-12-09T13:30:28.541Z,15.67
2022-12-09T13:33:46.456Z,15.03
2022-12-09T13:37:11.450Z,15.20
2022-12-09T13:40:26.378Z,13.40
2022-12-09T13:43:50.429Z,16.87
2022-12-09T13:47:02.475Z,16.20
2022-12-09T13:50:29.487Z,12.67
2022-12-09T13:53:47.594Z,13.97
2022-12-09T13:57:12.469Z,14.67
2022-12-09T14:00:24.459Z,13.80
2022-12-09T14:03:49.584Z,14.23
2022-12-09T14:07:09.643Z,14.55
2022-12-09T14:10:28.693Z,15.90
2022-12-09T14:13:46.583Z,12.57
2022-12-09T14:16:58.639Z,15.03
2022-12-09T14:20:15.546Z,13.53
2022-12-09T14:23:42.532Z,14.23
2022-12-09T14:27:03.590Z,13.65
2022-12-09T14:30:14.628Z,12.13
2022-12-09T14:33:26.554Z,15.00
2022-12-09T14:36:54.455Z,12.63
2022-12-09T14:40:08.901Z,13.70
2022-12-09T14:43:38.582Z,14.10
2022-12-09T14:46:54.276Z,13.87
2022-12-09T14:50:15.717Z,13.83
2022-12-09T14:53:27.707Z,12.13
2022-12-09T14:56:55.709Z,13.17
2022-12-09T15:00:11.877Z,12.23
2022-12-09T15:03:46.720Z,12.20
2022-12-09T15:06:40.719Z,14.60
2022-12-09T15:10:11.907Z,13.03
2022-12-09T15:13:25.755Z,12.23
2022-12-09T15:16:44.105Z,13.83
2022-12-09T15:20:01.443Z,11.30
2022-12-09T15:23:17.803Z,11.75
2022-12-09T15:26:29.789Z,13.83
2022-12-09T15:29:55.737Z,12.95
2022-12-09T15:32:58.722Z,10.67
2022-12-09T15:36:22.846Z,12.43
2022-12-09T15:39:34.773Z,10.77
2022-12-09T15:42:58.785Z,10.80
2022-12-09T15:46:11.903Z,11.30
2022-12-09T15:49:36.799Z,10.47
2022-12-09T15:52:48.865Z,10.97
2022-12-09T15:56:12.874Z,10.63
2022-12-09T15:59:24.874Z,10.90
2022-12-09T16:02:53.926Z,9.80
2022-12-09T16:06:18.946Z,10.33
2022-12-09T16:09:35.987Z,10.60
2022-12-09T16:12:47.900Z,12.10
2022-12-09T16:16:10.096Z,11.70
2022-12-09T16:19:51.970Z,10.03
2022-12-09T16:23:03.959Z,12.25
2022-12-09T16:26:27.932Z,11.00
2022-12-09T16:29:39.963Z,10.80
2022-12-09T16:33:07.957Z,9.93
2022-12-09T16:36:24.316Z,11.37
2022-12-09T16:39:55.186Z,9.90
2022-12-09T16:42:55.008Z,12.77
2022-12-09T16:46:19.099Z,10.20
2022-12-09T16:49:18.988Z,13.63
2022-12-09T16:52:44.014Z,19.23
2022-12-09T16:55:56.001Z,10.33
2022-12-09T16:59:21.028Z,9.97
2022-12-09T17:02:38.137Z,12.20
2022-12-09T17:05:50.070Z,11.15
2022-12-09T17:09:04.046Z,15.07
2022-12-09T17:12:21.209Z,10.17
2022-12-09T17:15:45.125Z,9.27
2022-12-09T17:18:57.071Z,12.53
2022-12-09T17:21:57.047Z,10.27
2022-12-09T17:25:26.097Z,10.37
2022-12-09T17:28:30.262Z,12.87
2022-12-09T17:31:53.223Z,9.83
2022-12-09T17:34:53.348Z,11.90
2022-12-09T17:38:05.220Z,11.40
2022-12-09T17:41:19.191Z,11.30
2022-12-09T17:44:43.252Z,10.20
2022-12-09T17:47:44.225Z,10.63
2022-12-09T17:50:57.240Z,10.75
2022-12-09T17:54:12.317Z,10.27
2022-12-09T17:57:39.251Z,11.30
2022-12-09T18:00:39.219Z,10.33
2022-12-09T18:03:57.110Z,11.40
2022-12-09T18:07:04.235Z,9.80
2022-12-09T18:10:30.278Z,10.30
2022-12-09T18:13:44.302Z,10.93
2022-12-09T18:16:58.330Z,9.60
2022-12-09T18:20:10.407Z,11.47
2022-12-09T18:23:25.333Z,11.87
2022-12-09T18:26:41.543Z,12.23
2022-12-09T18:30:03.306Z,11.10
2022-12-09T18:33:03.291Z,11.20
2022-12-09T18:36:30.373Z,11.60
2022-12-09T18:39:42.370Z,12.23
2022-12-09T18:42:54.368Z,12.15
2022-12-09T18:46:08.386Z,10.13
2022-12-09T18:49:32.356Z,9.20
2022-12-09T18:52:35.335Z,9.80
2022-12-09T18:56:05.432Z,12.47
2022-12-09T18:59:17.454Z,11.55
2022-12-09T19:02:43.465Z,12.50
2022-12-09T19:05:43.428Z,15.90
2022-12-09T19:08:55.469Z,14.37
2022-12-09T19:12:38.363Z,14.17
2022-12-09T19:15:21.453Z,13.70
2022-12-09T19:18:39.509Z,13.20
2022-12-09T19:22:03.529Z,13.10
2022-12-09T19:25:06.475Z,13.17
2022-12-09T19:28:19.502Z,14.10
2022-12-09T19:31:38.719Z,13.30
2022-12-09T19:35:04.556Z,12.97
2022-12-09T19:38:04.543Z,12.40
2022-12-09T19:41:29.552Z,12.35
2022-12-09T19:45:00.946Z,12.17
2022-12-09T19:47:57.584Z,15.37
2022-12-09T19:51:10.599Z,12.67
2022-12-09T19:54:34.574Z,12.30
2022-12-09T19:57:49.656Z,14.65
2022-12-09T20:01:01.627Z,16.93
2022-12-09T20:07:38.681Z,16.27
2022-12-09T20:11:07.665Z,14.10
2022-12-09T20:14:19.637Z,11.65
2022-12-09T20:17:34.710Z,13.35
2022-12-09T20:20:35.712Z,13.13
2022-12-09T20:24:02.693Z,12.60
2022-12-09T20:27:02.660Z,11.47
2022-12-09T20:30:28.699Z,12.17
2022-12-09T20:33:28.700Z,13.50
2022-12-09T20:36:53.699Z,11.85
2022-12-09T20:40:07.971Z,13.10
2022-12-09T20:43:20.723Z,14.93
2022-12-09T20:46:32.714Z,13.67
2022-12-09T20:49:47.764Z,11.77
2022-12-09T20:52:59.729Z,12.07
2022-12-09T20:56:28.800Z,15.25
2022-12-09T20:59:28.778Z,10.80
2022-12-09T21:02:40.774Z,14.55
2022-12-09T21:05:43.821Z,13.97
2022-12-09T21:09:07.787Z,12.70
2022-12-09T21:12:21.869Z,12.83
2022-12-09T21:15:33.846Z,12.50
2022-12-09T21:18:33.848Z,12.15
2022-12-09T21:21:58.865Z,14.83
2022-12-09T21:25:10.936Z,10.97
2022-12-09T21:28:36.904Z,12.23
2022-12-09T21:31:51.961Z,14.50
2022-12-09T21:35:03.853Z,13.85
2022-12-09T21:38:03.891Z,12.95
2022-12-09T21:41:31.948Z,13.70
2022-12-09T21:44:45.970Z,14.80
2022-12-09T21:47:57.961Z,12.03
2022-12-09T21:50:57.997Z,13.50
2022-12-09T21:54:10.927Z,16.40
2022-12-09T21:57:11.041Z,11.10
2022-12-09T22:00:36.983Z,17.10
2022-12-09T22:04:00.990Z,13.07
2022-12-09T22:07:12.964Z,13.53
2022-12-09T22:10:24.949Z,13.13
2022-12-09T22:13:39.522Z,13.37
2022-12-09T22:17:04.088Z,12.90
2022-12-09T22:20:44.061Z,12.73
2022-12-09T22:23:16.007Z,13.77
2022-12-09T22:26:29.065Z,12.70
2022-12-09T22:29:44.035Z,14.23
2022-12-09T22:33:01.057Z,12.80
2022-12-09T22:36:27.038Z,10.93
2022-12-09T22:39:39.255Z,13.70
2022-12-09T22:42:51.285Z,11.90
2022-12-09T22:45:54.224Z,12.13
2022-12-09T22:49:20.136Z,13.37
2022-12-09T22:52:32.108Z,14.50
2022-12-09T22:55:45.190Z,12.83
2022-12-09T22:58:57.205Z,11.90
2022-12-09T23:02:09.300Z,15.45
2022-12-09T23:05:23.235Z,14.63
2022-12-09T23:08:35.155Z,13.47
2022-12-09T23:11:47.173Z,14.77
2022-12-09T23:14:59.265Z,11.83
2022-12-09T23:17:59.258Z,18.73
2022-12-09T23:21:28.209Z,13.73
2022-12-09T23:24:40.202Z,16.27
2022-12-09T23:28:04.247Z,11.80
2022-12-09T23:31:28.409Z,15.40
2022-12-09T23:34:40.282Z,10.00
2022-12-09T23:37:54.220Z,13.40
2022-12-09T23:41:06.283Z,14.20
2022-12-09T23:44:21.294Z,12.77
2022-12-09T23:47:33.253Z,14.33
2022-12-09T23:50:33.348Z,12.23
2022-12-09T23:54:00.273Z,13.17
2022-12-09T23:57:01.355Z,13.60
